Venecija, Italija

09:12 AM CEST on Svibanj 05, 2015 (GMT +0200)
IVENEZIA10 | | Change Station
CLOSE
Current Station
Osobna meteo-postaja
Location: Favaro Veneto, VENEZIA
Visina: 18 ft
Nearby Weather Stations

Elev 18 ft 45.51 °N, 12.28 °E | Updated 1 minute ago

Scattered Clouds
Raštrkani oblaci
64.8 °F
Feels Like 64.8 °F
S
4.0
Vjetar Varijabla smjera vjetra Vjetar from SSI
Gusts 4.0 mph

Danas
High -- | Low -- °F
--% Chance of Precip.
Jučer
High -- | Low -- °F
Precip. -- u
5:53 AM 8:21 PM
Pun mjesec, 99% visible
Pritisak 29.98 u
Vidljivost 3.7 milja
Oblaci Raštrkani oblaci 10000 ft
Točka rose 59 °F
Vlažnost 82%
Kiša 0.00 u
Visina snijega Not available.
UV 3 od 12
Pollen Not available.
Kvalitet zraka Not available.
Flu Activity Not available.
METAR LIPS 050655Z 01004KT 6000 SCT100 19/16 Q1015 RMK BKN BKN200 VIS MIN 6000 WIND THR26 01003KT WIND THR08 35004KT WHT

More Conditions Fewer Conditions

Pritisak 29.98 u
Vidljivost 3.7 milja
Oblaci Raštrkani oblaci 10000 ft
Točka rose 59 °F
Vlažnost 82%
Kiša 0.00 u
Visina snijega Not available.
UV 3 od 12
Pollen Not available.
Kvalitet zraka Not available.
Flu Activity Not available.
METAR LIPS 050655Z 01004KT 6000 SCT100 19/16 Q1015 RMK BKN BKN200 VIS MIN 6000 WIND THR26 01003KT WIND THR08 35004KT WHT

More Conditions Fewer Conditions

10-Day Weather Forecast

Almanac

Astronomija

May. 05, 2015 Izlazak Zalazak
Trenutno vrijeme
Civilni sumrak
Nautički sumrak
Astronomski sumrak
Moon
Duljina trajanja vidljive svjetlosti
Duljina dana
Tomorrow will be .
, % of the Moon is Illuminated

Današnji ekstremi

Country Highs Country Lows

Community

WunderPhotos

Upload Photos

1,818,814 photos uploaded!

WunderBlogs® & News

Nearby

Kvalitet zraka

  Kvalitet zraka AQ Index Zagadjenje
Not available.

Visina snijega

Station Depth Visina

Earthquake Activity

Grad Distance Mag. Time & Date
Minimum magnitude displayed is 2.5.

Coastal Water Temperatures

Mjesto Temperatura

Stations

Nearby Weather Stations

Lokacija stanice Temp. Subjektivni osjećaj Točka rose Vlažnost Vjetar Precip. Elev Ažurirano Tip